createdAt,value
2019-03-24T00:00:11.938Z,4.40
2019-03-24T00:02:40.923Z,4.40
2019-03-24T00:05:09.930Z,4.40
2019-03-24T00:07:39.030Z,4.30
2019-03-24T00:10:08.125Z,4.30
2019-03-24T00:12:37.016Z,4.20
2019-03-24T00:15:08.569Z,3.90
2019-03-24T00:17:37.439Z,3.60
2019-03-24T00:20:10.432Z,3.40
2019-03-24T00:22:39.588Z,3.30
2019-03-24T00:25:08.847Z,3.30
2019-03-24T00:27:37.689Z,3.20
2019-03-24T00:30:08.480Z,3.20
2019-03-24T00:32:37.273Z,3.20
2019-03-24T00:35:07.898Z,3.10
2019-03-24T00:37:36.696Z,3.00
2019-03-24T00:40:08.957Z,3.00
2019-03-24T00:42:37.777Z,3.10
2019-03-24T00:45:08.451Z,3.10
2019-03-24T00:47:37.246Z,3.20
2019-03-24T00:50:07.169Z,3.10
2019-03-24T00:52:35.965Z,3.20
2019-03-24T00:55:08.866Z,3.20
2019-03-24T00:57:37.916Z,3.00
2019-03-24T01:00:09.021Z,2.90
2019-03-24T01:02:37.985Z,2.80
2019-03-24T01:05:08.416Z,2.70
2019-03-24T01:07:37.474Z,2.70
2019-03-24T01:10:09.997Z,2.70
2019-03-24T01:12:38.861Z,2.70
2019-03-24T01:15:08.603Z,2.70
2019-03-24T01:17:38.595Z,2.70
2019-03-24T01:20:09.138Z,2.60
2019-03-24T01:22:38.011Z,2.60
2019-03-24T01:25:07.447Z,2.70
2019-03-24T01:27:36.309Z,2.80
2019-03-24T01:30:08.280Z,2.70
2019-03-24T01:32:37.197Z,2.50
2019-03-24T01:35:07.108Z,2.40
2019-03-24T01:37:35.874Z,2.30
2019-03-24T01:40:07.222Z,2.30
2019-03-24T01:42:36.083Z,2.20
2019-03-24T01:45:09.613Z,2.10
2019-03-24T01:47:40.330Z,2.10
2019-03-24T01:50:09.474Z,2.10
2019-03-24T01:52:38.348Z,2.10
2019-03-24T01:55:08.639Z,2.00
2019-03-24T01:57:37.584Z,2.00
2019-03-24T02:00:07.908Z,2.00
2019-03-24T02:02:36.560Z,2.00
2019-03-24T02:05:08.562Z,2.00
2019-03-24T02:07:37.448Z,1.90
2019-03-24T02:10:07.962Z,1.90
2019-03-24T02:12:36.870Z,1.80
2019-03-24T02:15:08.020Z,1.80
2019-03-24T02:17:36.910Z,1.80
2019-03-24T02:20:07.647Z,1.80
2019-03-24T02:22:36.389Z,1.70
2019-03-24T02:25:07.230Z,1.70
2019-03-24T02:27:36.132Z,1.70
2019-03-24T02:30:07.313Z,1.70
2019-03-24T02:32:36.174Z,1.70
2019-03-24T02:35:06.551Z,1.70
2019-03-24T02:37:35.455Z,1.60
2019-03-24T02:40:08.690Z,1.60
2019-03-24T02:42:37.470Z,1.50
2019-03-24T02:45:07.485Z,1.50
2019-03-24T02:47:36.289Z,1.40
2019-03-24T02:50:06.215Z,1.20
2019-03-24T02:52:35.077Z,1.10
2019-03-24T02:55:06.058Z,1.10
2019-03-24T02:57:34.824Z,1.00
2019-03-24T03:00:05.706Z,1.00
2019-03-24T03:02:34.451Z,1.10
2019-03-24T03:05:03.518Z,1.10
2019-03-24T03:07:32.333Z,1.10
2019-03-24T03:10:01.233Z,1.00
2019-03-24T03:12:30.110Z,1.00
2019-03-24T03:14:59.011Z,1.00
2019-03-24T03:17:28.002Z,1.00
2019-03-24T03:19:57.024Z,0.90
2019-03-24T03:22:25.895Z,0.90
2019-03-24T03:24:54.687Z,0.90
2019-03-24T03:27:23.497Z,0.90
2019-03-24T03:29:52.401Z,0.90
2019-03-24T03:32:21.252Z,0.90
2019-03-24T03:34:50.229Z,0.80
2019-03-24T03:37:19.169Z,0.80
2019-03-24T03:39:47.972Z,0.90
2019-03-24T03:42:16.846Z,0.90
2019-03-24T03:44:45.756Z,0.90
2019-03-24T03:47:14.666Z,0.90
2019-03-24T03:49:43.520Z,0.90
2019-03-24T03:52:12.388Z,0.90
2019-03-24T03:54:41.282Z,0.80
2019-03-24T03:57:10.191Z,0.80
2019-03-24T03:59:39.165Z,0.70
2019-03-24T04:02:08.189Z,0.60
2019-03-24T04:04:36.953Z,0.40
2019-03-24T04:07:05.971Z,0.30
2019-03-24T04:09:34.808Z,0.30
2019-03-24T04:12:03.757Z,0.30
2019-03-24T04:14:34.264Z,0.50
2019-03-24T04:17:07.713Z,0.60
2019-03-24T04:19:33.657Z,0.50
2019-03-24T04:22:02.446Z,0.40
2019-03-24T04:24:31.284Z,0.40
2019-03-24T04:27:00.249Z,0.30
2019-03-24T04:29:29.040Z,0.30
2019-03-24T04:31:57.932Z,0.30
2019-03-24T04:34:26.851Z,0.20
2019-03-24T04:36:55.754Z,0.20
2019-03-24T04:39:24.607Z,0.30
2019-03-24T04:41:53.500Z,0.40
2019-03-24T04:44:22.393Z,0.30
2019-03-24T04:46:51.279Z,0.30
2019-03-24T04:49:20.180Z,0.20
2019-03-24T04:51:49.094Z,0.20
2019-03-24T04:54:19.679Z,0.20
2019-03-24T04:56:48.516Z,0.20
2019-03-24T04:59:17.390Z,0.20
2019-03-24T05:01:46.388Z,0.20
2019-03-24T05:04:15.396Z,0.20
2019-03-24T05:06:44.501Z,0.20
2019-03-24T05:09:15.024Z,0.10
2019-03-24T05:11:43.887Z,0.10
2019-03-24T05:14:12.800Z,0.10
2019-03-24T05:16:41.700Z,0.10
2019-03-24T05:19:10.594Z,0.20
2019-03-24T05:21:39.484Z,0.10
2019-03-24T05:24:08.375Z,0.10
2019-03-24T05:26:37.247Z,0.20
2019-03-24T05:29:06.200Z,0.20
2019-03-24T05:31:35.003Z,0.20
2019-03-24T05:34:03.943Z,0.10
2019-03-24T05:36:32.834Z,0.20
2019-03-24T05:39:01.700Z,0.20
2019-03-24T05:41:30.618Z,0.30
2019-03-24T05:43:59.717Z,0.30
2019-03-24T05:46:28.409Z,0.40
2019-03-24T05:48:57.123Z,0.40
2019-03-24T05:51:25.982Z,0.50
2019-03-24T05:53:54.713Z,0.60
2019-03-24T05:56:23.768Z,0.60
2019-03-24T05:58:53.602Z,0.80
2019-03-24T06:01:22.477Z,0.90
2019-03-24T06:03:53.076Z,1.00
2019-03-24T06:06:21.994Z,1.10
2019-03-24T06:08:50.888Z,1.20
2019-03-24T06:11:19.780Z,1.40
2019-03-24T06:13:48.541Z,1.60
2019-03-24T06:16:17.434Z,1.90
2019-03-24T06:18:46.323Z,2.20
2019-03-24T06:21:15.215Z,2.60
2019-03-24T06:23:44.035Z,2.90
2019-03-24T06:26:12.771Z,3.20
2019-03-24T06:28:41.692Z,3.40
2019-03-24T06:31:10.711Z,3.60
2019-03-24T06:33:39.606Z,3.90
2019-03-24T06:36:08.449Z,4.30
2019-03-24T06:38:39.140Z,4.70
2019-03-24T06:41:07.996Z,4.80
2019-03-24T06:43:36.821Z,5.10
2019-03-24T06:46:06.114Z,5.30
2019-03-24T06:48:34.847Z,5.40
2019-03-24T06:51:03.697Z,5.50
2019-03-24T06:53:32.539Z,5.90
2019-03-24T06:56:01.471Z,6.30
2019-03-24T06:58:30.337Z,6.90
2019-03-24T07:00:59.263Z,7.50
2019-03-24T07:03:28.150Z,8.10
2019-03-24T07:05:57.114Z,8.80
2019-03-24T07:08:25.901Z,9.30
2019-03-24T07:10:54.796Z,9.90
2019-03-24T07:13:23.714Z,10.40
2019-03-24T07:15:53.504Z,10.30
2019-03-24T07:18:22.390Z,10.50
2019-03-24T07:20:51.288Z,10.60
2019-03-24T07:23:20.104Z,11.00
2019-03-24T07:25:48.876Z,11.20
2019-03-24T07:28:17.888Z,11.50
2019-03-24T07:30:46.759Z,10.50
2019-03-24T07:33:26.870Z,10.30
2019-03-24T07:36:02.890Z,10.60
2019-03-24T07:38:31.962Z,10.40
2019-03-24T07:41:00.753Z,11.00
2019-03-24T07:43:29.670Z,10.80
2019-03-24T07:45:59.532Z,10.90
2019-03-24T07:48:28.381Z,10.70
2019-03-24T07:50:57.272Z,11.90
2019-03-24T07:53:26.027Z,12.70
2019-03-24T07:55:54.921Z,13.40
2019-03-24T07:58:23.812Z,13.80
2019-03-24T08:00:53.087Z,13.30
2019-03-24T08:03:21.930Z,12.40
2019-03-24T08:05:51.027Z,12.10
2019-03-24T08:08:19.924Z,11.60
2019-03-24T08:10:48.779Z,12.00
2019-03-24T08:13:17.704Z,12.40
2019-03-24T08:15:46.596Z,12.20
2019-03-24T08:18:15.491Z,13.90
2019-03-24T08:20:44.379Z,14.60
2019-03-24T08:23:13.270Z,14.10
2019-03-24T08:25:42.030Z,15.50
2019-03-24T08:28:10.911Z,15.50
2019-03-24T08:30:40.135Z,15.50
2019-03-24T08:33:09.044Z,15.80
2019-03-24T08:35:37.826Z,16.40
2019-03-24T08:38:07.033Z,15.40
2019-03-24T08:40:36.224Z,15.10
2019-03-24T08:43:05.206Z,15.90
2019-03-24T08:45:33.968Z,16.80
2019-03-24T08:48:02.846Z,15.50
2019-03-24T08:50:31.773Z,15.10
2019-03-24T08:53:00.665Z,15.00
2019-03-24T08:55:29.558Z,16.00
2019-03-24T08:57:59.910Z,17.20
2019-03-24T09:00:30.935Z,15.70
2019-03-24T09:02:59.329Z,15.20
2019-03-24T09:05:28.427Z,16.40
2019-03-24T09:07:57.395Z,16.30
2019-03-24T09:10:26.317Z,17.00
2019-03-24T09:12:56.185Z,17.70
2019-03-24T09:15:25.015Z,17.50
2019-03-24T09:17:54.014Z,17.30
2019-03-24T09:20:23.112Z,17.30
2019-03-24T09:22:52.000Z,17.00
2019-03-24T09:25:21.264Z,16.90
2019-03-24T09:27:50.274Z,18.10
2019-03-24T09:30:35.835Z,19.50
2019-03-24T09:33:04.894Z,20.20
2019-03-24T09:35:34.179Z,19.10
2019-03-24T09:38:03.134Z,19.00
2019-03-24T09:40:35.031Z,18.90
2019-03-24T09:43:04.537Z,19.90
2019-03-24T09:45:33.893Z,20.20
2019-03-24T09:48:02.831Z,19.50
2019-03-24T09:50:32.494Z,20.70
2019-03-24T09:53:01.828Z,21.90
2019-03-24T09:55:30.842Z,20.20
2019-03-24T09:57:59.730Z,20.00
2019-03-24T10:00:28.631Z,20.10
2019-03-24T10:02:57.721Z,20.20
2019-03-24T10:05:26.611Z,19.60
2019-03-24T10:07:55.583Z,20.40
2019-03-24T10:10:24.599Z,17.60
2019-03-24T10:12:53.492Z,15.80
2019-03-24T10:15:22.587Z,16.20
2019-03-24T10:17:51.481Z,15.80
2019-03-24T10:20:20.372Z,17.50
2019-03-24T10:22:50.378Z,19.20
2019-03-24T10:25:19.384Z,18.90
2019-03-24T10:27:48.383Z,16.80
2019-03-24T10:30:17.255Z,16.90
2019-03-24T10:32:46.266Z,18.40
2019-03-24T10:35:15.363Z,16.30
2019-03-24T10:37:45.150Z,17.00
2019-03-24T10:40:14.446Z,15.60
2019-03-24T10:42:43.340Z,15.20
2019-03-24T10:45:13.080Z,15.30
2019-03-24T10:47:43.917Z,16.10
2019-03-24T10:50:14.464Z,17.10
2019-03-24T10:52:43.648Z,15.80
2019-03-24T10:55:12.949Z,17.30
2019-03-24T10:57:41.846Z,16.30
2019-03-24T11:00:13.194Z,17.70
2019-03-24T11:02:42.084Z,18.10
2019-03-24T11:05:11.997Z,17.00
2019-03-24T11:07:41.094Z,15.40
2019-03-24T11:10:11.000Z,16.60
2019-03-24T11:12:39.983Z,15.70
2019-03-24T11:15:10.435Z,16.20
2019-03-24T11:17:39.325Z,14.80
2019-03-24T11:20:09.291Z,15.60
2019-03-24T11:22:38.951Z,16.50
2019-03-24T11:25:10.226Z,18.70
2019-03-24T11:27:39.068Z,16.50
2019-03-24T11:30:13.253Z,15.20
2019-03-24T11:32:42.307Z,15.20
2019-03-24T11:35:12.516Z,15.90
2019-03-24T11:37:41.932Z,15.90
2019-03-24T11:40:12.216Z,15.40
2019-03-24T11:42:41.148Z,16.20
2019-03-24T11:45:12.496Z,15.30
2019-03-24T11:47:41.345Z,15.40
2019-03-24T11:50:10.704Z,15.90
2019-03-24T11:52:39.786Z,15.70
2019-03-24T11:55:09.336Z,15.40
2019-03-24T11:57:39.005Z,15.40
2019-03-24T12:00:13.792Z,15.40
2019-03-24T12:02:42.701Z,15.40
2019-03-24T12:05:12.438Z,15.30
2019-03-24T12:07:41.535Z,15.50
2019-03-24T12:10:13.034Z,15.60
2019-03-24T12:12:41.982Z,15.80
2019-03-24T12:15:11.287Z,15.60
2019-03-24T12:17:40.183Z,15.70
2019-03-24T12:20:10.916Z,15.50
2019-03-24T12:22:40.007Z,15.60
2019-03-24T12:25:09.314Z,16.00
2019-03-24T12:27:38.199Z,15.60
2019-03-24T12:30:13.547Z,15.10
2019-03-24T12:32:42.537Z,15.60
2019-03-24T12:35:11.437Z,15.90
2019-03-24T12:37:40.322Z,16.80
2019-03-24T12:40:10.604Z,17.20
2019-03-24T12:42:39.951Z,16.60
2019-03-24T12:45:09.924Z,15.80
2019-03-24T12:47:38.961Z,15.60
2019-03-24T12:50:10.131Z,15.40
2019-03-24T12:52:39.194Z,15.60
2019-03-24T12:55:08.915Z,16.20
2019-03-24T12:57:38.219Z,17.10
2019-03-24T13:00:12.022Z,17.50
2019-03-24T13:02:40.951Z,16.90
2019-03-24T13:05:10.625Z,16.60
2019-03-24T13:07:39.721Z,16.70
2019-03-24T13:10:09.420Z,16.00
2019-03-24T13:12:38.529Z,16.10
2019-03-24T13:15:08.690Z,16.40
2019-03-24T13:17:37.746Z,16.10
2019-03-24T13:20:19.606Z,16.00
2019-03-24T13:22:38.808Z,15.80
2019-03-24T13:25:09.838Z,15.70
2019-03-24T13:27:38.953Z,15.60
2019-03-24T13:30:08.473Z,15.90
2019-03-24T13:32:37.658Z,16.00
2019-03-24T13:35:08.701Z,15.60
2019-03-24T13:37:37.588Z,15.10
2019-03-24T13:40:06.698Z,15.20
2019-03-24T13:42:35.620Z,15.30
2019-03-24T13:45:07.746Z,15.70
2019-03-24T13:47:39.711Z,16.40
2019-03-24T13:50:09.449Z,16.40
2019-03-24T13:52:38.620Z,15.60
2019-03-24T13:55:08.533Z,15.20
2019-03-24T13:57:37.632Z,15.80
2019-03-24T14:00:07.956Z,16.00
2019-03-24T14:02:37.160Z,16.10
2019-03-24T14:05:06.665Z,15.40
2019-03-24T14:07:37.935Z,15.70
2019-03-24T14:10:08.545Z,16.20
2019-03-24T14:12:37.493Z,15.70
2019-03-24T14:15:07.458Z,15.80
2019-03-24T14:17:36.657Z,15.80
2019-03-24T14:20:09.222Z,15.50
2019-03-24T14:22:38.341Z,15.50
2019-03-24T14:25:08.654Z,15.30
2019-03-24T14:27:37.852Z,14.80
2019-03-24T14:30:08.996Z,15.00
2019-03-24T14:32:38.093Z,15.20
2019-03-24T14:35:07.810Z,15.40
2019-03-24T14:37:37.314Z,15.20
2019-03-24T14:40:06.876Z,15.20
2019-03-24T14:42:35.879Z,15.30
2019-03-24T14:45:06.942Z,15.10
2019-03-24T14:47:36.158Z,15.30
2019-03-24T14:50:06.620Z,15.00
2019-03-24T14:52:35.656Z,14.70
2019-03-24T14:55:05.592Z,14.40
2019-03-24T14:57:34.558Z,14.40
2019-03-24T15:00:05.865Z,14.50
2019-03-24T15:02:34.905Z,15.00
2019-03-24T15:05:05.123Z,15.70
2019-03-24T15:07:34.195Z,15.50
2019-03-24T15:10:04.376Z,15.30
2019-03-24T15:12:33.676Z,14.70
2019-03-24T15:15:02.871Z,14.50
2019-03-24T15:17:32.076Z,14.00
2019-03-24T15:20:01.385Z,13.90
2019-03-24T15:22:30.678Z,13.70
2019-03-24T15:25:01.419Z,13.70
2019-03-24T15:27:30.723Z,13.60
2019-03-24T15:29:59.777Z,13.40
2019-03-24T15:32:33.206Z,13.20
2019-03-24T15:35:02.406Z,13.10
2019-03-24T15:37:32.563Z,12.90
2019-03-24T15:40:05.376Z,12.70
2019-03-24T15:42:34.596Z,12.80
2019-03-24T15:45:04.577Z,12.90
2019-03-24T15:47:33.500Z,13.10
2019-03-24T15:50:02.946Z,13.20
2019-03-24T15:52:33.639Z,13.20
2019-03-24T15:55:05.107Z,13.20
2019-03-24T15:57:34.124Z,13.10
2019-03-24T16:00:06.055Z,13.00
2019-03-24T16:02:36.743Z,12.70
2019-03-24T16:05:07.614Z,12.60
2019-03-24T16:07:37.081Z,12.30
2019-03-24T16:10:08.095Z,12.30
2019-03-24T16:12:39.141Z,12.20
2019-03-24T16:15:09.017Z,12.10
2019-03-24T16:17:38.008Z,12.10
2019-03-24T16:20:07.724Z,12.20
2019-03-24T16:22:36.627Z,12.20
2019-03-24T16:25:07.895Z,12.30
2019-03-24T16:27:36.992Z,12.10
2019-03-24T16:30:08.315Z,12.10
2019-03-24T16:32:38.260Z,12.00
2019-03-24T16:35:07.598Z,11.80
2019-03-24T16:37:36.549Z,11.70
2019-03-24T16:40:08.967Z,11.60
2019-03-24T16:42:38.263Z,11.40
2019-03-24T16:45:07.839Z,11.40
2019-03-24T16:47:36.854Z,11.30
2019-03-24T16:50:07.490Z,11.20
2019-03-24T16:52:36.561Z,11.10
2019-03-24T16:55:07.508Z,11.10
2019-03-24T16:57:36.590Z,11.10
2019-03-24T17:00:08.630Z,11.10
2019-03-24T17:02:37.886Z,11.00
2019-03-24T17:05:08.499Z,11.00
2019-03-24T17:07:37.801Z,10.90
2019-03-24T17:10:07.920Z,10.80
2019-03-24T17:12:37.001Z,10.70
2019-03-24T17:15:08.949Z,10.60
2019-03-24T17:17:39.718Z,10.50
2019-03-24T17:20:10.873Z,10.40
2019-03-24T17:22:40.161Z,10.30
2019-03-24T17:25:11.106Z,10.20
2019-03-24T17:27:40.407Z,10.20
2019-03-24T17:30:12.368Z,10.10
2019-03-24T17:32:41.672Z,10.00
2019-03-24T17:35:11.586Z,10.00
2019-03-24T17:37:41.296Z,10.00
2019-03-24T17:40:12.469Z,9.80
2019-03-24T17:42:41.744Z,9.70
2019-03-24T17:45:11.797Z,9.60
2019-03-24T17:47:40.962Z,9.60
2019-03-24T17:50:12.080Z,9.60
2019-03-24T17:52:41.537Z,9.60
2019-03-24T17:55:10.903Z,9.70
2019-03-24T17:57:40.011Z,9.70
2019-03-24T18:00:12.383Z,9.80
2019-03-24T18:02:41.478Z,9.80
2019-03-24T18:05:11.006Z,9.80
2019-03-24T18:07:40.081Z,10.00
2019-03-24T18:10:11.227Z,10.00
2019-03-24T18:12:40.532Z,10.10
2019-03-24T18:15:11.416Z,10.10
2019-03-24T18:17:40.775Z,10.20
2019-03-24T18:20:10.917Z,10.20
2019-03-24T18:22:39.994Z,10.20
2019-03-24T18:25:09.699Z,10.30
2019-03-24T18:27:38.796Z,10.30
2019-03-24T18:30:11.383Z,10.40
2019-03-24T18:32:40.676Z,10.40
2019-03-24T18:35:11.820Z,10.40
2019-03-24T18:37:40.918Z,10.40
2019-03-24T18:40:11.248Z,10.40
2019-03-24T18:42:40.573Z,10.40
2019-03-24T18:45:11.943Z,10.30
2019-03-24T18:47:41.289Z,10.30
2019-03-24T18:50:11.522Z,10.30
2019-03-24T18:52:40.750Z,10.30
2019-03-24T18:55:10.110Z,10.20
2019-03-24T18:57:39.426Z,10.20
2019-03-24T19:00:10.836Z,10.10
2019-03-24T19:02:39.776Z,10.20
2019-03-24T19:05:09.142Z,10.10
2019-03-24T19:07:39.203Z,10.10
2019-03-24T19:10:09.415Z,10.10
2019-03-24T19:12:38.576Z,10.00
2019-03-24T19:15:10.154Z,10.00
2019-03-24T19:17:41.007Z,9.90
2019-03-24T19:20:11.045Z,9.90
2019-03-24T19:22:40.226Z,9.90
2019-03-24T19:25:12.549Z,9.80
2019-03-24T19:27:43.412Z,9.80
2019-03-24T19:30:16.934Z,9.80
2019-03-24T19:32:46.412Z,9.70
2019-03-24T19:35:15.742Z,9.70
2019-03-24T19:37:46.758Z,9.60
2019-03-24T19:40:26.745Z,9.60
2019-03-24T19:42:56.173Z,9.60
2019-03-24T19:45:27.900Z,9.50
2019-03-24T19:47:57.360Z,9.50
2019-03-24T19:50:26.911Z,9.50
2019-03-24T19:52:56.214Z,9.50
2019-03-24T19:55:26.952Z,9.50
2019-03-24T19:57:56.458Z,9.50
2019-03-24T20:00:25.890Z,9.50
2019-03-24T20:02:55.269Z,9.50
2019-03-24T20:05:26.799Z,9.50
2019-03-24T20:07:55.507Z,9.40
2019-03-24T20:10:25.075Z,9.40
2019-03-24T20:12:54.107Z,9.40
2019-03-24T20:15:23.204Z,9.40
2019-03-24T20:17:52.305Z,9.40
2019-03-24T20:20:21.398Z,9.30
2019-03-24T20:22:56.687Z,9.30
2019-03-24T20:25:23.925Z,9.20
2019-03-24T20:27:53.195Z,9.10
2019-03-24T20:30:24.135Z,9.00
2019-03-24T20:32:53.324Z,8.90
2019-03-24T20:35:22.530Z,8.80
2019-03-24T20:37:51.833Z,8.80
2019-03-24T20:40:21.341Z,8.70
2019-03-24T20:42:50.365Z,8.70
2019-03-24T20:45:19.661Z,8.60
2019-03-24T20:47:49.040Z,8.50
2019-03-24T20:50:18.343Z,8.40
2019-03-24T20:52:47.641Z,8.20
2019-03-24T20:55:16.948Z,8.10
2019-03-24T20:57:45.960Z,8.00
2019-03-24T21:00:15.571Z,7.90
2019-03-24T21:02:44.643Z,7.70
2019-03-24T21:05:15.588Z,7.50
2019-03-24T21:07:46.270Z,7.40
2019-03-24T21:10:15.345Z,7.30
2019-03-24T21:12:44.324Z,7.10
2019-03-24T21:15:13.815Z,7.10
2019-03-24T21:17:42.774Z,7.00
2019-03-24T21:20:12.420Z,7.00
2019-03-24T21:22:43.152Z,6.90
2019-03-24T21:25:14.031Z,6.80
2019-03-24T21:27:43.187Z,6.80
2019-03-24T21:30:14.335Z,6.80
2019-03-24T21:32:43.432Z,6.60
2019-03-24T21:35:14.165Z,6.40
2019-03-24T21:37:43.264Z,6.30
2019-03-24T21:40:12.770Z,6.20
2019-03-24T21:42:41.866Z,6.00
2019-03-24T21:45:13.422Z,6.00
2019-03-24T21:47:42.721Z,6.00
2019-03-24T21:50:13.459Z,6.10
2019-03-24T21:52:42.760Z,6.10
2019-03-24T21:55:12.676Z,6.10
2019-03-24T21:57:41.774Z,6.20
2019-03-24T22:00:11.692Z,6.30
2019-03-24T22:02:40.949Z,6.40
2019-03-24T22:05:10.290Z,6.40
2019-03-24T22:07:39.212Z,6.40
2019-03-24T22:10:08.688Z,6.40
2019-03-24T22:12:37.455Z,6.50
2019-03-24T22:15:09.340Z,6.50
2019-03-24T22:17:38.231Z,6.60
2019-03-24T22:20:09.251Z,6.70
2019-03-24T22:22:38.270Z,6.70
2019-03-24T22:25:08.593Z,6.70
2019-03-24T22:27:37.442Z,6.70
2019-03-24T22:30:08.221Z,6.70
2019-03-24T22:32:37.031Z,6.60
2019-03-24T22:35:06.936Z,6.50
2019-03-24T22:37:35.780Z,6.30
2019-03-24T22:40:06.911Z,6.10
2019-03-24T22:42:35.796Z,5.90
2019-03-24T22:45:05.631Z,5.70
2019-03-24T22:47:34.527Z,5.50
2019-03-24T22:50:04.467Z,5.50
2019-03-24T22:52:33.575Z,5.40
2019-03-24T22:55:03.080Z,5.20
2019-03-24T22:57:32.733Z,5.10
2019-03-24T23:00:01.893Z,4.90
2019-03-24T23:02:30.761Z,4.80
2019-03-24T23:04:59.752Z,4.80
2019-03-24T23:07:28.779Z,4.70
2019-03-24T23:09:57.866Z,4.60
2019-03-24T23:12:26.963Z,4.70
2019-03-24T23:14:56.858Z,4.70
2019-03-24T23:17:25.770Z,4.80
2019-03-24T23:19:54.488Z,4.70
2019-03-24T23:22:23.423Z,4.70
2019-03-24T23:24:52.317Z,4.70
2019-03-24T23:27:21.209Z,4.60
2019-03-24T23:29:50.232Z,4.50
2019-03-24T23:32:19.124Z,4.30
2019-03-24T23:34:47.947Z,4.30
2019-03-24T23:37:16.904Z,4.30
2019-03-24T23:39:45.796Z,4.40
2019-03-24T23:42:14.753Z,4.40
2019-03-24T23:44:43.658Z,4.40
2019-03-24T23:47:12.515Z,4.30
2019-03-24T23:49:41.571Z,4.30
2019-03-24T23:52:10.436Z,4.20
2019-03-24T23:54:39.356Z,4.20
2019-03-24T23:57:08.247Z,4.20
2019-03-24T23:59:37.140Z,4.30
